createdAt,value
2019-01-16T00:00:39.126Z,7.62
2019-01-16T00:03:05.431Z,7.62
2019-01-16T00:05:31.738Z,7.62
2019-01-16T00:07:58.104Z,7.62
2019-01-16T00:10:24.401Z,7.63
2019-01-16T00:12:50.706Z,7.62
2019-01-16T00:15:17.055Z,7.62
2019-01-16T00:17:43.318Z,7.60
2019-01-16T00:20:09.621Z,7.59
2019-01-16T00:22:35.906Z,7.59
2019-01-16T00:25:02.204Z,7.60
2019-01-16T00:27:28.501Z,7.60
2019-01-16T00:29:54.814Z,7.61
2019-01-16T00:32:21.126Z,7.63
2019-01-16T00:34:47.493Z,7.60
2019-01-16T00:37:13.756Z,7.59
2019-01-16T00:39:40.070Z,7.57
2019-01-16T00:42:06.367Z,7.57
2019-01-16T00:44:32.677Z,7.56
2019-01-16T00:46:59.010Z,7.53
2019-01-16T00:49:25.312Z,7.54
2019-01-16T00:51:51.618Z,7.52
2019-01-16T00:54:17.920Z,7.50
2019-01-16T00:56:44.212Z,7.47
2019-01-16T00:59:10.567Z,7.44
2019-01-16T01:01:36.815Z,7.42
2019-01-16T01:04:03.116Z,7.39
2019-01-16T01:06:29.417Z,7.40
2019-01-16T01:08:55.725Z,7.38
2019-01-16T01:11:22.038Z,7.36
2019-01-16T01:13:48.380Z,7.38
2019-01-16T01:16:14.667Z,7.35
2019-01-16T01:18:41.274Z,7.36
2019-01-16T01:21:07.287Z,7.33
2019-01-16T01:23:33.583Z,7.33
2019-01-16T01:25:59.883Z,7.32
2019-01-16T01:28:26.180Z,7.32
2019-01-16T01:30:52.500Z,7.32
2019-01-16T01:33:18.819Z,7.28
2019-01-16T01:35:45.145Z,7.26
2019-01-16T01:38:11.469Z,7.27
2019-01-16T01:40:37.763Z,7.28
2019-01-16T01:43:04.077Z,7.25
2019-01-16T01:45:30.384Z,7.22
2019-01-16T01:47:56.687Z,7.22
2019-01-16T01:50:22.998Z,7.21
2019-01-16T01:52:49.345Z,7.19
2019-01-16T01:55:15.643Z,7.19
2019-01-16T01:57:41.959Z,7.17
2019-01-16T02:00:08.298Z,7.18
2019-01-16T02:02:34.615Z,7.19
2019-01-16T02:05:00.926Z,7.20
2019-01-16T02:07:27.232Z,7.20
2019-01-16T02:09:53.551Z,7.22
2019-01-16T02:12:19.853Z,7.21
2019-01-16T02:14:46.155Z,7.23
2019-01-16T02:17:12.454Z,7.22
2019-01-16T02:19:38.783Z,7.22
2019-01-16T02:22:05.106Z,7.25
2019-01-16T02:24:31.408Z,7.24
2019-01-16T02:26:57.718Z,7.23
2019-01-16T02:29:24.066Z,7.23
2019-01-16T02:31:50.366Z,7.18
2019-01-16T02:34:16.666Z,7.19
2019-01-16T02:36:42.964Z,7.18
2019-01-16T02:39:09.265Z,7.18
2019-01-16T02:41:35.578Z,7.13
2019-01-16T02:44:01.889Z,7.16
2019-01-16T02:46:28.198Z,7.15
2019-01-16T02:48:56.296Z,7.15
2019-01-16T02:51:20.840Z,7.17
2019-01-16T02:53:47.131Z,7.16
2019-01-16T02:56:13.477Z,7.16
2019-01-16T02:58:39.790Z,7.16
2019-01-16T03:01:06.097Z,7.08
2019-01-16T03:03:32.409Z,7.14
2019-01-16T03:05:58.722Z,7.16
2019-01-16T03:08:25.016Z,7.15
2019-01-16T03:10:51.337Z,7.12
2019-01-16T03:13:17.633Z,7.12
2019-01-16T03:15:43.944Z,7.13
2019-01-16T03:18:10.247Z,7.12
2019-01-16T03:20:36.566Z,7.09
2019-01-16T03:23:02.874Z,7.06
2019-01-16T03:25:29.193Z,7.03
2019-01-16T03:27:55.488Z,6.98
2019-01-16T03:30:21.795Z,6.94
2019-01-16T03:32:48.111Z,6.95
2019-01-16T03:35:14.413Z,6.92
2019-01-16T03:37:40.706Z,6.92
2019-01-16T03:40:07.007Z,6.89
2019-01-16T03:42:33.314Z,6.89
2019-01-16T03:44:59.600Z,6.88
2019-01-16T03:47:25.934Z,6.83
2019-01-16T03:49:52.234Z,6.84
2019-01-16T03:52:18.541Z,6.82
2019-01-16T03:54:44.846Z,6.80
2019-01-16T03:57:11.139Z,6.79
2019-01-16T03:59:37.434Z,6.77
2019-01-16T04:02:03.727Z,6.74
2019-01-16T04:04:30.031Z,6.72
2019-01-16T04:06:56.334Z,6.67
2019-01-16T04:09:22.694Z,6.64
2019-01-16T04:11:48.960Z,6.60
2019-01-16T04:14:15.246Z,6.56
2019-01-16T04:16:41.563Z,6.56
2019-01-16T04:19:07.860Z,6.55
2019-01-16T04:21:34.163Z,6.51
2019-01-16T04:24:00.479Z,6.55
2019-01-16T04:26:26.794Z,6.52
2019-01-16T04:28:53.099Z,6.51
2019-01-16T04:31:19.437Z,6.48
2019-01-16T04:33:45.742Z,6.45
2019-01-16T04:36:12.040Z,6.46
2019-01-16T04:38:38.353Z,6.43
2019-01-16T04:41:04.662Z,6.41
2019-01-16T04:43:30.962Z,6.41
2019-01-16T04:45:57.257Z,6.39
2019-01-16T04:48:23.557Z,6.38
2019-01-16T04:50:49.866Z,6.34
2019-01-16T04:53:16.168Z,6.34
2019-01-16T04:55:42.492Z,6.31
2019-01-16T04:58:08.793Z,6.28
2019-01-16T05:00:35.096Z,6.27
2019-01-16T05:03:01.414Z,6.26
2019-01-16T05:05:27.731Z,6.26
2019-01-16T05:07:54.031Z,6.23
2019-01-16T05:10:20.328Z,6.21
2019-01-16T05:12:46.622Z,6.21
2019-01-16T05:15:12.941Z,6.20
2019-01-16T05:17:39.260Z,6.21
2019-01-16T05:20:05.574Z,6.19
2019-01-16T05:22:31.873Z,7.13
2019-01-16T05:24:58.187Z,8.59
2019-01-16T05:27:24.507Z,8.85
2019-01-16T05:29:50.803Z,8.45
2019-01-16T05:32:17.126Z,8.13
2019-01-16T05:34:43.434Z,7.90
2019-01-16T05:37:09.735Z,7.71
2019-01-16T05:39:36.036Z,7.58
2019-01-16T05:42:02.373Z,7.46
2019-01-16T05:44:28.678Z,7.38
2019-01-16T05:46:54.978Z,7.34
2019-01-16T05:49:21.311Z,7.31
2019-01-16T05:51:47.598Z,7.28
2019-01-16T05:54:13.899Z,7.27
2019-01-16T05:56:40.200Z,7.25
2019-01-16T05:59:06.490Z,7.23
2019-01-16T06:01:32.793Z,7.21
2019-01-16T06:03:59.094Z,7.21
2019-01-16T06:06:25.404Z,7.16
2019-01-16T06:08:51.717Z,7.13
2019-01-16T06:11:18.050Z,7.15
2019-01-16T06:13:44.343Z,7.35
2019-01-16T06:16:10.641Z,7.65
2019-01-16T06:18:36.951Z,7.88
2019-01-16T06:21:03.247Z,8.03
2019-01-16T06:23:29.568Z,7.99
2019-01-16T06:25:55.861Z,8.17
2019-01-16T06:28:22.163Z,8.26
2019-01-16T06:30:48.472Z,8.36
2019-01-16T06:33:14.800Z,8.46
2019-01-16T06:35:41.098Z,8.51
2019-01-16T06:38:07.406Z,8.64
2019-01-16T06:40:33.715Z,8.82
2019-01-16T06:43:00.015Z,9.07
2019-01-16T06:45:26.329Z,9.30
2019-01-16T06:47:52.643Z,9.38
2019-01-16T06:50:18.935Z,9.42
2019-01-16T06:52:45.256Z,9.34
2019-01-16T06:55:11.558Z,9.19
2019-01-16T06:57:37.862Z,9.11
2019-01-16T07:00:04.187Z,9.16
2019-01-16T07:02:30.480Z,9.24
2019-01-16T07:04:56.776Z,9.32
2019-01-16T07:07:23.083Z,9.43
2019-01-16T07:09:49.374Z,9.54
2019-01-16T07:12:15.744Z,9.60
2019-01-16T07:14:42.034Z,9.60
2019-01-16T07:17:08.350Z,9.60
2019-01-16T07:19:34.647Z,9.68
2019-01-16T07:22:00.946Z,10.05
2019-01-16T07:24:27.288Z,10.52
2019-01-16T07:26:53.598Z,10.99
2019-01-16T07:29:19.900Z,11.42
2019-01-16T07:31:46.228Z,11.88
2019-01-16T07:34:12.541Z,12.26
2019-01-16T07:36:38.862Z,12.62
2019-01-16T07:39:05.179Z,12.95
2019-01-16T07:41:31.468Z,13.26
2019-01-16T07:43:57.769Z,13.56
2019-01-16T07:46:24.068Z,13.85
2019-01-16T07:48:50.358Z,14.11
2019-01-16T07:51:16.727Z,14.39
2019-01-16T07:53:42.979Z,14.59
2019-01-16T07:56:09.328Z,14.86
2019-01-16T07:58:35.631Z,15.02
2019-01-16T08:01:01.935Z,14.92
2019-01-16T08:03:28.267Z,15.00
2019-01-16T08:05:54.576Z,15.40
2019-01-16T08:08:20.878Z,15.97
2019-01-16T08:10:47.306Z,16.57
2019-01-16T08:13:13.605Z,17.07
2019-01-16T08:15:39.900Z,17.46
2019-01-16T08:18:06.203Z,17.77
2019-01-16T08:20:32.522Z,18.02
2019-01-16T08:22:58.826Z,18.26
2019-01-16T08:25:25.133Z,18.46
2019-01-16T08:27:51.445Z,18.54
2019-01-16T08:30:17.783Z,18.73
2019-01-16T08:32:44.097Z,18.96
2019-01-16T08:35:10.409Z,19.14
2019-01-16T08:37:36.726Z,19.41
2019-01-16T08:40:03.035Z,19.63
2019-01-16T08:42:29.376Z,19.84
2019-01-16T08:44:55.695Z,20.09
2019-01-16T08:47:21.993Z,20.23
2019-01-16T08:49:48.323Z,20.45
2019-01-16T08:52:14.619Z,20.78
2019-01-16T08:54:40.940Z,21.29
2019-01-16T08:57:07.236Z,21.83
2019-01-16T08:59:33.559Z,22.18
2019-01-16T09:01:59.886Z,22.46
2019-01-16T09:04:26.185Z,22.57
2019-01-16T09:06:52.486Z,22.61
2019-01-16T09:09:18.832Z,22.57
2019-01-16T09:11:45.139Z,22.44
2019-01-16T09:14:11.432Z,21.89
2019-01-16T09:16:37.728Z,21.43
2019-01-16T09:19:04.052Z,20.88
2019-01-16T09:21:30.368Z,20.38
2019-01-16T09:23:56.665Z,19.95
2019-01-16T09:26:22.983Z,19.60
2019-01-16T09:28:49.285Z,19.32
2019-01-16T09:31:15.606Z,19.15
2019-01-16T09:33:41.925Z,19.05
2019-01-16T09:36:08.245Z,18.99
2019-01-16T09:38:34.557Z,18.87
2019-01-16T09:41:00.863Z,19.25
2019-01-16T09:43:27.178Z,19.68
2019-01-16T09:45:53.482Z,20.21
2019-01-16T09:48:19.798Z,20.70
2019-01-16T09:50:47.981Z,21.13
2019-01-16T09:53:12.397Z,21.43
2019-01-16T09:55:38.697Z,21.69
2019-01-16T09:58:05.010Z,21.95
2019-01-16T10:00:31.350Z,22.26
2019-01-16T10:02:57.653Z,22.57
2019-01-16T10:05:23.961Z,22.82
2019-01-16T10:07:50.264Z,22.94
2019-01-16T10:10:16.573Z,22.81
2019-01-16T10:12:42.906Z,22.70
2019-01-16T10:15:09.209Z,22.50
2019-01-16T10:17:35.560Z,22.38
2019-01-16T10:20:01.825Z,22.49
2019-01-16T10:22:28.133Z,22.56
2019-01-16T10:24:54.446Z,22.63
2019-01-16T10:27:20.757Z,22.83
2019-01-16T10:29:47.056Z,23.16
2019-01-16T10:32:13.356Z,23.50
2019-01-16T10:34:39.691Z,23.81
2019-01-16T10:37:05.985Z,23.99
2019-01-16T10:39:32.285Z,24.07
2019-01-16T10:41:58.613Z,24.05
2019-01-16T10:44:24.901Z,24.11
2019-01-16T10:46:51.195Z,24.14
2019-01-16T10:49:17.490Z,24.06
2019-01-16T10:51:43.797Z,23.97
2019-01-16T10:54:10.117Z,23.90
2019-01-16T10:56:36.426Z,23.85
2019-01-16T10:59:02.734Z,23.77
2019-01-16T11:01:29.045Z,23.75
2019-01-16T11:03:55.355Z,23.81
2019-01-16T11:06:21.753Z,23.92
2019-01-16T11:08:48.012Z,24.01
2019-01-16T11:11:16.168Z,24.06
2019-01-16T11:13:40.643Z,24.18
2019-01-16T11:16:06.938Z,24.30
2019-01-16T11:18:33.287Z,24.45
2019-01-16T11:20:59.585Z,24.57
2019-01-16T11:23:25.877Z,24.55
2019-01-16T11:25:52.171Z,24.56
2019-01-16T11:28:18.586Z,24.56
2019-01-16T11:30:44.781Z,24.60
2019-01-16T11:33:11.083Z,24.69
2019-01-16T11:35:37.385Z,24.79
2019-01-16T11:38:03.703Z,24.89
2019-01-16T11:40:30.019Z,25.01
2019-01-16T11:42:56.330Z,25.11
2019-01-16T11:45:22.648Z,25.24
2019-01-16T11:47:48.949Z,25.37
2019-01-16T11:50:15.244Z,25.47
2019-01-16T11:52:41.566Z,25.37
2019-01-16T11:55:07.882Z,25.25
2019-01-16T11:57:34.182Z,25.17
2019-01-16T12:00:00.501Z,25.14
2019-01-16T12:02:26.814Z,25.24
2019-01-16T12:04:53.113Z,25.43
2019-01-16T12:07:19.416Z,25.61
2019-01-16T12:09:45.739Z,25.70
2019-01-16T12:12:12.075Z,25.78
2019-01-16T12:14:38.427Z,25.83
2019-01-16T12:17:04.684Z,25.86
2019-01-16T12:19:30.994Z,25.86
2019-01-16T12:21:57.296Z,25.87
2019-01-16T12:24:23.617Z,25.86
2019-01-16T12:26:49.946Z,25.85
2019-01-16T12:29:16.246Z,25.81
2019-01-16T12:31:42.562Z,25.85
2019-01-16T12:34:08.902Z,25.76
2019-01-16T12:36:35.247Z,25.61
2019-01-16T12:39:01.689Z,25.44
2019-01-16T12:41:28.004Z,25.28
2019-01-16T12:43:54.312Z,25.13
2019-01-16T12:46:20.682Z,25.00
2019-01-16T12:48:46.955Z,24.97
2019-01-16T12:51:13.258Z,24.96
2019-01-16T12:53:39.566Z,24.97
2019-01-16T12:56:05.886Z,24.98
2019-01-16T12:58:34.441Z,24.97
2019-01-16T13:00:58.691Z,24.95
2019-01-16T13:03:25.109Z,24.91
2019-01-16T13:05:51.449Z,24.85
2019-01-16T13:08:17.756Z,24.83
2019-01-16T13:10:44.067Z,24.78
2019-01-16T13:13:10.379Z,24.72
2019-01-16T13:15:36.730Z,24.59
2019-01-16T13:18:03.029Z,24.42
2019-01-16T13:20:29.318Z,24.18
2019-01-16T13:22:55.677Z,23.87
2019-01-16T13:25:21.954Z,23.53
2019-01-16T13:27:48.275Z,23.31
2019-01-16T13:30:14.582Z,23.18
2019-01-16T13:32:40.956Z,23.14
2019-01-16T13:35:07.703Z,23.07
2019-01-16T13:37:34.250Z,22.99
2019-01-16T13:40:00.551Z,22.89
2019-01-16T13:42:26.862Z,22.84
2019-01-16T13:44:53.174Z,22.79
2019-01-16T13:47:19.479Z,22.75
2019-01-16T13:49:45.835Z,22.72
2019-01-16T13:52:12.149Z,22.73
2019-01-16T13:54:38.651Z,22.69
2019-01-16T13:57:05.105Z,22.64
2019-01-16T13:59:31.411Z,22.59
2019-01-16T14:01:57.719Z,22.54
2019-01-16T14:04:24.010Z,22.46
2019-01-16T14:06:50.330Z,22.42
2019-01-16T14:09:16.628Z,22.29
2019-01-16T14:11:43.005Z,22.18
2019-01-16T14:14:09.317Z,22.04
2019-01-16T14:16:35.613Z,21.90
2019-01-16T14:19:02.084Z,21.77
2019-01-16T14:21:28.379Z,21.58
2019-01-16T14:23:54.679Z,21.44
2019-01-16T14:26:20.983Z,21.27
2019-01-16T14:28:47.274Z,21.11
2019-01-16T14:31:13.626Z,20.98
2019-01-16T14:33:39.925Z,20.87
2019-01-16T14:36:06.220Z,20.77
2019-01-16T14:38:32.514Z,20.62
2019-01-16T14:40:58.812Z,20.51
2019-01-16T14:43:25.121Z,20.42
2019-01-16T14:45:51.454Z,20.31
2019-01-16T14:48:17.819Z,20.24
2019-01-16T14:50:44.107Z,20.09
2019-01-16T14:53:10.389Z,20.08
2019-01-16T14:55:36.704Z,20.02
2019-01-16T14:58:03.010Z,19.98
2019-01-16T15:00:29.321Z,19.90
2019-01-16T15:02:55.635Z,19.79
2019-01-16T15:05:21.962Z,19.70
2019-01-16T15:07:48.574Z,19.59
2019-01-16T15:10:14.865Z,19.51
2019-01-16T15:12:41.167Z,19.41
2019-01-16T15:15:09.799Z,19.34
2019-01-16T15:17:33.793Z,19.24
2019-01-16T15:20:00.222Z,19.19
2019-01-16T15:22:26.446Z,19.07
2019-01-16T15:24:52.763Z,18.97
2019-01-16T15:27:19.094Z,18.80
2019-01-16T15:29:45.389Z,18.73
2019-01-16T15:32:11.748Z,18.74
2019-01-16T15:34:38.106Z,18.73
2019-01-16T15:37:04.405Z,18.65
2019-01-16T15:39:30.713Z,18.54
2019-01-16T15:41:57.081Z,18.55
2019-01-16T15:44:23.384Z,18.44
2019-01-16T15:46:49.731Z,18.35
2019-01-16T15:49:16.041Z,18.32
2019-01-16T15:51:42.341Z,18.19
2019-01-16T15:54:08.639Z,18.06
2019-01-16T15:56:34.932Z,17.99
2019-01-16T15:59:01.291Z,17.95
2019-01-16T16:01:27.608Z,17.93
2019-01-16T16:03:53.920Z,17.92
2019-01-16T16:06:20.236Z,17.93
2019-01-16T16:08:46.578Z,17.93
2019-01-16T16:11:12.850Z,17.89
2019-01-16T16:13:39.169Z,17.82
2019-01-16T16:16:05.482Z,17.76
2019-01-16T16:18:31.775Z,17.69
2019-01-16T16:20:58.097Z,17.67
2019-01-16T16:23:24.395Z,17.54
2019-01-16T16:25:50.694Z,17.39
2019-01-16T16:28:17.008Z,17.34
2019-01-16T16:30:43.307Z,17.33
2019-01-16T16:33:09.610Z,17.32
2019-01-16T16:35:35.924Z,17.28
2019-01-16T16:38:02.245Z,17.22
2019-01-16T16:40:28.532Z,17.22
2019-01-16T16:42:54.830Z,17.15
2019-01-16T16:45:21.135Z,17.10
2019-01-16T16:47:47.442Z,17.03
2019-01-16T16:50:13.756Z,16.93
2019-01-16T16:52:40.070Z,16.90
2019-01-16T16:55:06.377Z,16.84
2019-01-16T16:57:32.671Z,16.78
2019-01-16T16:59:58.974Z,16.71
2019-01-16T17:02:25.279Z,16.69
2019-01-16T17:04:51.614Z,16.60
2019-01-16T17:07:17.920Z,16.51
2019-01-16T17:09:44.220Z,16.44
2019-01-16T17:12:10.521Z,16.48
2019-01-16T17:14:36.832Z,16.41
2019-01-16T17:17:03.140Z,16.33
2019-01-16T17:19:29.441Z,16.29
2019-01-16T17:21:55.755Z,16.29
2019-01-16T17:24:22.088Z,16.32
2019-01-16T17:26:48.501Z,16.33
2019-01-16T17:29:14.794Z,16.21
2019-01-16T17:31:41.110Z,16.15
2019-01-16T17:34:07.463Z,16.16
2019-01-16T17:36:35.808Z,16.28
2019-01-16T17:39:00.270Z,16.18
2019-01-16T17:41:26.550Z,16.12
2019-01-16T17:43:52.878Z,16.08
2019-01-16T17:46:19.314Z,16.03
2019-01-16T17:48:45.715Z,16.01
2019-01-16T17:51:12.011Z,15.96
2019-01-16T17:53:38.321Z,15.96
2019-01-16T17:56:04.628Z,15.90
2019-01-16T17:58:30.954Z,15.83
2019-01-16T18:00:57.406Z,15.78
2019-01-16T18:03:23.687Z,15.73
2019-01-16T18:05:50.310Z,15.66
2019-01-16T18:08:16.610Z,15.63
2019-01-16T18:10:42.908Z,15.59
2019-01-16T18:13:09.203Z,15.53
2019-01-16T18:15:35.529Z,15.46
2019-01-16T18:18:01.868Z,15.41
2019-01-16T18:20:28.232Z,15.34
2019-01-16T18:22:54.570Z,15.30
2019-01-16T18:25:20.877Z,15.26
2019-01-16T18:27:47.230Z,15.24
2019-01-16T18:30:13.525Z,15.20
2019-01-16T18:32:39.837Z,15.10
2019-01-16T18:35:06.209Z,15.08
2019-01-16T18:37:35.105Z,15.03
2019-01-16T18:40:01.401Z,15.00
2019-01-16T18:42:27.763Z,14.95
2019-01-16T18:44:54.060Z,14.91
2019-01-16T18:47:20.397Z,14.97
2019-01-16T18:49:46.705Z,14.96
2019-01-16T18:52:13.040Z,14.90
2019-01-16T18:54:39.350Z,14.79
2019-01-16T18:57:05.652Z,14.74
2019-01-16T18:59:32.110Z,14.81
2019-01-16T19:02:03.086Z,14.89
2019-01-16T19:04:29.520Z,14.78
2019-01-16T19:06:55.821Z,14.72
2019-01-16T19:09:22.133Z,14.76
2019-01-16T19:11:48.443Z,14.69
2019-01-16T19:14:14.750Z,14.65
2019-01-16T19:16:41.060Z,14.53
2019-01-16T19:19:07.379Z,14.45
2019-01-16T19:21:33.678Z,14.41
2019-01-16T19:23:59.980Z,14.35
2019-01-16T19:26:26.316Z,14.31
2019-01-16T19:28:52.635Z,14.26
2019-01-16T19:31:18.936Z,14.19
2019-01-16T19:33:45.229Z,14.12
2019-01-16T19:36:11.583Z,14.04
2019-01-16T19:38:37.864Z,14.03
2019-01-16T19:41:04.182Z,14.15
2019-01-16T19:43:30.529Z,14.09
2019-01-16T19:45:56.830Z,13.98
2019-01-16T19:48:23.138Z,13.91
2019-01-16T19:50:49.501Z,13.85
2019-01-16T19:53:17.904Z,13.78
2019-01-16T19:55:44.241Z,13.71
2019-01-16T19:58:10.823Z,13.63
2019-01-16T20:00:37.117Z,13.58
2019-01-16T20:03:03.420Z,13.55
2019-01-16T20:05:29.769Z,13.52
2019-01-16T20:07:57.781Z,13.44
2019-01-16T20:10:22.770Z,13.38
2019-01-16T20:12:49.063Z,13.32
2019-01-16T20:15:15.370Z,13.30
2019-01-16T20:17:41.668Z,13.24
2019-01-16T20:20:07.978Z,13.18
2019-01-16T20:22:34.290Z,13.22
2019-01-16T20:25:00.595Z,13.10
2019-01-16T20:27:26.952Z,13.07
2019-01-16T20:29:53.280Z,13.05
2019-01-16T20:32:19.567Z,13.01
2019-01-16T20:34:48.516Z,12.97
2019-01-16T20:37:13.433Z,12.94
2019-01-16T20:39:38.522Z,12.87
2019-01-16T20:42:04.826Z,12.80
2019-01-16T20:44:31.344Z,12.75
2019-01-16T20:47:00.510Z,12.74
2019-01-16T20:49:26.888Z,12.70
2019-01-16T20:51:53.208Z,12.68
2019-01-16T20:54:19.568Z,12.63
2019-01-16T20:56:45.817Z,12.62
2019-01-16T20:59:12.371Z,12.56
2019-01-16T21:01:38.641Z,12.49
2019-01-16T21:04:06.473Z,12.49
2019-01-16T21:06:31.389Z,12.41
2019-01-16T21:08:57.686Z,12.34
2019-01-16T21:11:24.017Z,12.34
2019-01-16T21:13:50.334Z,12.31
2019-01-16T21:16:16.631Z,12.27
2019-01-16T21:18:42.943Z,12.21
2019-01-16T21:21:09.248Z,12.17
2019-01-16T21:23:35.584Z,12.13
2019-01-16T21:26:01.898Z,12.08
2019-01-16T21:28:28.235Z,12.07
2019-01-16T21:30:54.587Z,12.03
2019-01-16T21:33:20.897Z,11.99
2019-01-16T21:35:49.197Z,11.98
2019-01-16T21:38:13.731Z,11.96
2019-01-16T21:40:42.267Z,11.90
2019-01-16T21:43:08.569Z,11.84
2019-01-16T21:45:34.872Z,11.82
2019-01-16T21:48:01.167Z,11.81
2019-01-16T21:50:27.528Z,11.80
2019-01-16T21:52:53.891Z,11.78
2019-01-16T21:55:20.170Z,11.77
2019-01-16T21:57:46.471Z,11.73
2019-01-16T22:00:12.804Z,11.69
2019-01-16T22:02:39.121Z,11.65
2019-01-16T22:05:05.446Z,11.62
2019-01-16T22:07:31.760Z,11.58
2019-01-16T22:09:58.059Z,11.55
2019-01-16T22:12:24.361Z,11.52
2019-01-16T22:14:50.667Z,11.48
2019-01-16T22:17:16.991Z,11.47
2019-01-16T22:19:43.302Z,11.45
2019-01-16T22:22:09.608Z,11.40
2019-01-16T22:24:35.913Z,11.37
2019-01-16T22:27:02.224Z,11.36
2019-01-16T22:29:28.550Z,11.32
2019-01-16T22:31:54.838Z,11.27
2019-01-16T22:34:21.137Z,11.16
2019-01-16T22:36:47.448Z,11.10
2019-01-16T22:39:13.770Z,11.07
2019-01-16T22:41:40.088Z,11.00
2019-01-16T22:44:06.399Z,10.96
2019-01-16T22:46:32.700Z,10.92
2019-01-16T22:48:59.011Z,10.90
2019-01-16T22:51:25.315Z,10.86
2019-01-16T22:53:51.682Z,10.81
2019-01-16T22:56:17.992Z,10.79
2019-01-16T22:58:44.279Z,10.78
2019-01-16T23:01:10.603Z,10.76
2019-01-16T23:03:36.896Z,10.71
2019-01-16T23:06:03.220Z,10.70
2019-01-16T23:08:29.537Z,10.70
2019-01-16T23:10:55.853Z,10.68
2019-01-16T23:13:22.166Z,10.65
2019-01-16T23:15:48.469Z,10.61
2019-01-16T23:18:14.781Z,10.58
2019-01-16T23:20:41.077Z,10.56
2019-01-16T23:23:07.385Z,10.55
2019-01-16T23:25:33.714Z,10.53
2019-01-16T23:28:00.025Z,10.52
2019-01-16T23:30:26.324Z,10.53
2019-01-16T23:32:52.624Z,10.50
2019-01-16T23:35:18.933Z,10.44
2019-01-16T23:37:45.228Z,10.41
2019-01-16T23:40:11.534Z,10.36
2019-01-16T23:42:37.839Z,10.34
2019-01-16T23:45:04.156Z,10.34
2019-01-16T23:47:30.463Z,10.30
2019-01-16T23:49:56.779Z,10.26
2019-01-16T23:52:23.096Z,10.25
2019-01-16T23:54:49.404Z,10.24
2019-01-16T23:57:15.705Z,10.22
2019-01-16T23:59:42.023Z,10.19
